PWSweather.com
Personal Weather Stations
Station Observations
HASBROUCK
Northern New Jersey, Hasbrouck Heights, NJ 07604

Northern New JerseyHasbrouck Heights, NJ 07604

Lat: 40.8563, Lon: -74.08453

Elevation: 160

Station Type: Davis Vantage Pro2 Plus

http://heightsweather.info

Latest ConditionsUpdated 2:30:02 PM EDT Monday, Jul 16, 2018
Currently Today's Max Today's Min Today's Average
Temperature 90.3°F32.4°C 91.9°F33.3°C 72.0°F22.2°C 79.8°F26.6°C
Dew Point 74.0°F23.3°C 74.8°F23.8°C 68.6°F20.3°C 71.0°F21.7°C
Winds 8.1 mph SSE13.0 kmh SSE 10.4 mph -16.7 kmh - - 1.8 mph 2.9 kmh
Wind Gusts 9.2 mph14.8 kmh 12.7 mph20.4 kmh - -
Humidity 59% 90% 50% 76%
Pressure 29.89 in1012.2 mb 29.95 in1014.2 mb 29.89 in1012.2 mb -
Hour Temp Dew Point Humidity Winds Wind Gusts Pressure Precip Precip Rate Daily Precip Total
02:30 PM 90.3°F32.4°C 74.0°F23.3°C 59% 8.1 mph SSE13.0 kmh SSE 9.2 mph14.8 kmh 29.89 in1012.2 mb - 0.00 in0.0 mm 0.00 in0.0 mm
02:15 PM 89.9°F32.2°C 73.2°F22.9°C 58% 10.4 mph SSE16.7 kmh SSE 12.7 mph20.4 kmh 29.89 in1012.2 mb - 0.00 in0.0 mm 0.00 in0.0 mm
02:00 PM 91.7°F33.2°C 71.5°F21.9°C 52% 1.2 mph SW1.9 kmh SW 4.6 mph7.4 kmh 29.89 in1012.2 mb - 0.00 in0.0 mm 0.00 in0.0 mm
01:45 PM 91.9°F33.3°C 72.3°F22.4°C 53% 4.6 mph SSE7.4 kmh SSE 8.1 mph13.0 kmh 29.90 in1012.5 mb - 0.00 in0.0 mm 0.00 in0.0 mm
01:30 PM 91.9°F33.3°C 70.6°F21.4°C 50% 2.3 mph SSW3.7 kmh SSW 4.6 mph7.4 kmh 29.90 in1012.5 mb - 0.00 in0.0 mm 0.00 in0.0 mm
01:15 PM 91.5°F33.1°C 71.4°F21.9°C 52% 8.1 mph SW13.0 kmh SW 11.5 mph18.5 kmh 29.91 in1012.9 mb - 0.00 in0.0 mm 0.00 in0.0 mm
01:00 PM 90.7°F32.6°C 73.9°F23.3°C 58% 5.8 mph SW9.3 kmh SW 8.1 mph13.0 kmh 29.91 in1012.9 mb - 0.00 in0.0 mm 0.00 in0.0 mm
12:45 PM 90.7°F32.6°C 72.9°F22.7°C 56% 1.2 mph S1.9 kmh S 2.3 mph3.7 kmh 29.91 in1012.9 mb - 0.00 in0.0 mm 0.00 in0.0 mm
12:30 PM 90.4°F32.4°C 73.6°F23.1°C 58% 2.3 mph S3.7 kmh S 3.5 mph5.6 kmh 29.91 in1012.9 mb - 0.00 in0.0 mm 0.00 in0.0 mm
12:15 PM 89.3°F31.8°C 72.1°F22.3°C 57% 1.2 mph SW1.9 kmh SW 3.5 mph5.6 kmh 29.92 in1013.2 mb - 0.00 in0.0 mm 0.00 in0.0 mm
12:00 PM 89.7°F32.1°C 74.0°F23.3°C 60% 2.3 mph WSW3.7 kmh WSW 6.9 mph11.1 kmh 29.93 in1013.5 mb - 0.00 in0.0 mm 0.00 in0.0 mm
11:45 AM 88.5°F31.4°C 74.3°F23.5°C 63% 3.5 mph WSW5.6 kmh WSW 3.5 mph5.6 kmh 29.93 in1013.5 mb - 0.00 in0.0 mm 0.00 in0.0 mm
11:30 AM 88.8°F31.6°C 73.6°F23.1°C 61% 2.3 mph SW3.7 kmh SW 4.6 mph7.4 kmh 29.93 in1013.5 mb - 0.00 in0.0 mm 0.00 in0.0 mm
11:15 AM 89.0°F31.7°C 74.8°F23.8°C 63% 5.8 mph SW9.3 kmh SW 6.9 mph11.1 kmh 29.93 in1013.5 mb - 0.00 in0.0 mm 0.00 in0.0 mm
11:00 AM 87.6°F30.9°C 72.4°F22.4°C 61% 5.8 mph SSW9.3 kmh SSW 6.9 mph11.1 kmh 29.93 in1013.5 mb - 0.00 in0.0 mm 0.00 in0.0 mm
10:45 AM 86.4°F30.2°C 74.2°F23.4°C 67% 2.3 mph SW3.7 kmh SW 5.8 mph9.3 kmh 29.94 in1013.9 mb - 0.00 in0.0 mm 0.00 in0.0 mm
10:30 AM 85.3°F29.6°C 73.1°F22.8°C 67% 5.8 mph SW9.3 kmh SW 9.2 mph14.8 kmh 29.94 in1013.9 mb - 0.00 in0.0 mm 0.00 in0.0 mm
10:15 AM 83.7°F28.7°C 72.9°F22.7°C 70% 3.5 mph SE5.6 kmh SE 4.6 mph7.4 kmh 29.94 in1013.9 mb - 0.00 in0.0 mm 0.00 in0.0 mm
10:00 AM 83.2°F28.4°C 72.8°F22.7°C 71% 1.2 mph SW1.9 kmh SW 3.5 mph5.6 kmh 29.95 in1014.2 mb - 0.00 in0.0 mm 0.00 in0.0 mm
09:45 AM 81.6°F27.6°C 72.9°F22.7°C 75% 1.2 mph WSW1.9 kmh WSW 3.5 mph5.6 kmh 29.94 in1013.9 mb - 0.00 in0.0 mm 0.00 in0.0 mm
09:30 AM 81.3°F27.4°C 72.6°F22.6°C 75% Calm Calm 1.2 mph1.9 kmh 29.95 in1014.2 mb - 0.00 in0.0 mm 0.00 in0.0 mm
09:15 AM 80.5°F26.9°C 72.2°F22.3°C 76% 1.2 mph SW1.9 kmh SW 3.5 mph5.6 kmh 29.95 in1014.2 mb - 0.00 in0.0 mm 0.00 in0.0 mm
09:00 AM 79.6°F26.4°C 72.1°F22.3°C 78% Calm Calm 1.2 mph1.9 kmh 29.94 in1013.9 mb - 0.00 in0.0 mm 0.00 in0.0 mm
08:45 AM 78.9°F26.1°C 71.8°F22.1°C 79% Calm Calm 2.3 mph3.7 kmh 29.94 in1013.9 mb - 0.00 in0.0 mm 0.00 in0.0 mm
08:30 AM 78.2°F25.7°C 71.2°F21.8°C 79% 3.5 mph SW5.6 kmh SW 3.5 mph5.6 kmh 29.95 in1014.2 mb - 0.00 in0.0 mm 0.00 in0.0 mm
08:15 AM 78.0°F25.6°C 71.3°F21.8°C 80% Calm Calm 1.2 mph1.9 kmh 29.95 in1014.2 mb - 0.00 in0.0 mm 0.00 in0.0 mm
08:00 AM 77.9°F25.5°C 71.6°F22.0°C 81% 1.2 mph SSW1.9 kmh SSW 3.5 mph5.6 kmh 29.94 in1013.9 mb - 0.00 in0.0 mm 0.00 in0.0 mm
07:45 AM 77.9°F25.5°C 71.6°F22.0°C 81% Calm Calm 1.2 mph1.9 kmh 29.94 in1013.9 mb - 0.00 in0.0 mm 0.00 in0.0 mm
07:30 AM 77.4°F25.2°C 71.1°F21.7°C 81% 1.2 mph SSW1.9 kmh SSW 1.2 mph1.9 kmh 29.94 in1013.9 mb - 0.00 in0.0 mm 0.00 in0.0 mm
07:15 AM 76.2°F24.6°C 71.1°F21.7°C 84% Calm Calm 2.3 mph3.7 kmh 29.94 in1013.9 mb - 0.00 in0.0 mm 0.00 in0.0 mm
07:00 AM 75.0°F23.9°C 70.6°F21.4°C 86% 1.2 mph SSW1.9 kmh SSW 2.3 mph3.7 kmh 29.94 in1013.9 mb - 0.00 in0.0 mm 0.00 in0.0 mm
06:45 AM 73.7°F23.2°C 69.9°F21.1°C 88% 1.2 mph SSW1.9 kmh SSW 1.2 mph1.9 kmh 29.94 in1013.9 mb - 0.00 in0.0 mm 0.00 in0.0 mm
06:30 AM 72.9°F22.7°C 69.5°F20.8°C 89% Calm Calm -- 29.93 in1013.5 mb - 0.00 in0.0 mm 0.00 in0.0 mm
06:15 AM 72.6°F22.6°C 69.1°F20.6°C 89% Calm Calm -- 29.93 in1013.5 mb - 0.00 in0.0 mm 0.00 in0.0 mm
06:00 AM 72.3°F22.4°C 69.2°F20.7°C 90% 1.2 mph SSW1.9 kmh SSW 2.3 mph3.7 kmh 29.93 in1013.5 mb - 0.00 in0.0 mm 0.00 in0.0 mm
05:45 AM 72.2°F22.3°C 68.8°F20.4°C 89% Calm Calm -- 29.93 in1013.5 mb - 0.00 in0.0 mm 0.00 in0.0 mm
05:30 AM 72.0°F22.2°C 68.6°F20.3°C 89% Calm Calm -- 29.93 in1013.5 mb - 0.00 in0.0 mm 0.00 in0.0 mm
05:15 AM 72.4°F22.4°C 68.6°F20.3°C 88% Calm Calm -- 29.93 in1013.5 mb - 0.00 in0.0 mm 0.00 in0.0 mm
05:00 AM 72.7°F22.6°C 69.0°F20.6°C 88% Calm Calm -- 29.92 in1013.2 mb - 0.00 in0.0 mm 0.00 in0.0 mm
04:45 AM 73.0°F22.8°C 68.9°F20.5°C 87% Calm Calm 1.2 mph1.9 kmh 29.92 in1013.2 mb - 0.00 in0.0 mm 0.00 in0.0 mm
04:30 AM 73.2°F22.9°C 68.8°F20.4°C 86% 1.2 mph SSW1.9 kmh SSW 2.3 mph3.7 kmh 29.92 in1013.2 mb - 0.00 in0.0 mm 0.00 in0.0 mm
04:15 AM 73.9°F23.3°C 69.1°F20.6°C 85% Calm Calm 1.2 mph1.9 kmh 29.92 in1013.2 mb - 0.00 in0.0 mm 0.00 in0.0 mm
04:00 AM 73.6°F23.1°C 69.2°F20.7°C 86% 1.2 mph SSW1.9 kmh SSW 2.3 mph3.7 kmh 29.92 in1013.2 mb - 0.00 in0.0 mm 0.00 in0.0 mm
03:45 AM 73.6°F23.1°C 69.2°F20.7°C 86% 1.2 mph SSW1.9 kmh SSW 2.3 mph3.7 kmh 29.93 in1013.5 mb - 0.00 in0.0 mm 0.00 in0.0 mm
03:30 AM 73.3°F22.9°C 69.2°F20.7°C 87% 2.3 mph SSW3.7 kmh SSW 3.5 mph5.6 kmh 29.93 in1013.5 mb - 0.00 in0.0 mm 0.00 in0.0 mm
03:15 AM 73.7°F23.2°C 69.2°F20.7°C 86% Calm Calm -- 29.93 in1013.5 mb - 0.00 in0.0 mm 0.00 in0.0 mm
03:00 AM 73.8°F23.2°C 69.0°F20.6°C 85% Calm Calm 1.2 mph1.9 kmh 29.93 in1013.5 mb - 0.00 in0.0 mm 0.00 in0.0 mm
02:45 AM 73.7°F23.2°C 69.2°F20.7°C 86% 2.3 mph SSW3.7 kmh SSW 3.5 mph5.6 kmh 29.93 in1013.5 mb - 0.00 in0.0 mm 0.00 in0.0 mm
02:30 AM 74.0°F23.3°C 69.2°F20.7°C 85% Calm Calm -- 29.93 in1013.5 mb - 0.00 in0.0 mm 0.00 in0.0 mm
02:15 AM 74.2°F23.4°C 69.4°F20.8°C 85% Calm Calm -- 29.93 in1013.5 mb - 0.00 in0.0 mm 0.00 in0.0 mm
02:00 AM 74.4°F23.6°C 69.2°F20.7°C 84% Calm Calm -- 29.93 in1013.5 mb - 0.00 in0.0 mm 0.00 in0.0 mm
01:45 AM 74.9°F23.8°C 69.4°F20.8°C 83% Calm Calm 1.2 mph1.9 kmh 29.93 in1013.5 mb - 0.00 in0.0 mm 0.00 in0.0 mm
01:30 AM 75.4°F24.1°C 69.9°F21.1°C 83% Calm Calm 1.2 mph1.9 kmh 29.93 in1013.5 mb - 0.00 in0.0 mm 0.00 in0.0 mm
01:15 AM 75.6°F24.2°C 70.0°F21.1°C 83% Calm Calm 1.2 mph1.9 kmh 29.93 in1013.5 mb - 0.00 in0.0 mm 0.00 in0.0 mm
01:00 AM 76.1°F24.5°C 69.8°F21.0°C 81% 1.2 mph SSW1.9 kmh SSW 2.3 mph3.7 kmh 29.93 in1013.5 mb - 0.00 in0.0 mm 0.00 in0.0 mm
12:45 AM 76.8°F24.9°C 70.2°F21.2°C 80% 1.2 mph S1.9 kmh S 2.3 mph3.7 kmh 29.93 in1013.5 mb - 0.00 in0.0 mm 0.00 in0.0 mm
12:30 AM 76.9°F24.9°C 70.3°F21.3°C 80% 2.3 mph S3.7 kmh S 3.5 mph5.6 kmh 29.93 in1013.5 mb - 0.00 in0.0 mm 0.00 in0.0 mm
12:15 AM 77.1°F25.1°C 70.5°F21.4°C 80% 2.3 mph SW3.7 kmh SW 3.5 mph5.6 kmh 29.93 in1013.5 mb - 0.00 in0.0 mm 0.00 in0.0 mm
12:00 AM 77.3°F25.2°C 71.0°F21.7°C 81% 3.5 mph SW5.6 kmh SW 3.5 mph5.6 kmh 29.93 in1013.5 mb - 0.00 in0.0 mm 0.00 in0.0 mm